Kuban Star — UBNJ8 — position and weather

sailwx.info

Track history (hours):
 
Tides and Currents Weather Stations Pressure Air Temp Water Temp Dewpoint Dewpoint Depression Visibility Wind Speed Wind Dir Waves Ship Positions

Kuban Star

Last reported at 2018-Jan-23 13:49 UTC. Time now 2018-Jan-24 09:51 UTC.
Position N 45°09' E 036°34'.

Length 28 m; draft 3.4 m.

Type: Tug. MMSI: 273316460.

Date/timePositionNaut miles runAvg speedWind from/ knotsBaromVisibWave heightAir tempDewpointWater temp
2018-Jan-23 13:49N 45°09' E 036°34'0 0.1
2018-Jan-23 12:18N 45°09' E 036°34'1 0.4
2018-Jan-23 10:50N 45°09' E 036°34'1 3.6
2018-Jan-23 10:29N 45°10' E 036°33'1 0.1
2018-Jan-22 19:55N 45°10' E 036°34'0 0.0
2018-Jan-22 12:24N 45°10' E 036°34'0 0.0
2018-Jan-22 09:09N 45°10' E 036°34'0 0.0
2018-Jan-22 07:54N 45°10' E 036°34'0 0.1
2018-Jan-22 04:25N 45°10' E 036°34'1 1.1
2018-Jan-22 03:55N 45°10' E 036°33'1 0.1
2018-Jan-21 21:48N 45°10' E 036°34'0 0.0
2018-Jan-21 21:21N 45°10' E 036°34'0 0.0
2018-Jan-21 20:46N 45°10' E 036°34'0 0.0
2018-Jan-21 20:30N 45°10' E 036°34'0 0.2
2018-Jan-21 19:39N 45°10' E 036°34'1 3.8
2018-Jan-21 19:27N 45°10' E 036°33'0 0.0
2018-Jan-21 18:57N 45°10' E 036°33'1 1.7
2018-Jan-21 18:24N 45°10' E 036°34'0 0.0
2018-Jan-21 17:57N 45°10' E 036°34'0 0.0
2018-Jan-21 17:30N 45°10' E 036°34'0 0.0
2018-Jan-21 16:58N 45°10' E 036°34'2 3.0
2018-Jan-21 16:17N 45°08' E 036°34'0 0.1
2018-Jan-21 16:00N 45°08' E 036°34'0 0.6
2018-Jan-21 15:18N 45°09' E 036°35'2 2.3
2018-Jan-21 14:36N 45°10' E 036°34'1 7.5
2018-Jan-21 14:30N 45°10' E 036°33'4 7.5
2018-Jan-21 13:56N 45°10' E 036°27'1 0.1
2018-Jan-21 05:52N 45°10' E 036°26'0 0.0
2018-Jan-21 01:13N 45°10' E 036°26'0 0.0
2018-Jan-21 00:52N 45°10' E 036°26'0 0.0
2018-Jan-21 00:22N 45°10' E 036°26'0 0.0
2018-Jan-20 23:58N 45°10' E 036°26'0 0.0
2018-Jan-20 23:16N 45°10' E 036°26'0 0.0
2018-Jan-20 20:33N 45°10' E 036°26'0 0.0
2018-Jan-20 20:15N 45°10' E 036°26'0 0.0
2018-Jan-20 13:58N 45°10' E 036°26'0 0.0
2018-Jan-20 13:22N 45°10' E 036°26'0 0.0
2018-Jan-20 12:58N 45°10' E 036°26'0 0.0
2018-Jan-20 12:28N 45°10' E 036°26'0 0.0
2018-Jan-20 11:58N 45°10' E 036°26'0 0.0
2018-Jan-20 10:55N 45°10' E 036°26'0 0.0
2018-Jan-20 10:30N 45°10' E 036°26'4 3.1
2018-Jan-20 09:15N 45°09' E 036°31'1 3.7
2018-Jan-20 09:00N 45°09' E 036°33'2 3.1
2018-Jan-20 08:31N 45°10' E 036°34'0 0.4
2018-Jan-20 07:59N 45°10' E 036°35'0 0.0
2018-Jan-20 07:30N 45°10' E 036°35'0 0.0
2018-Jan-20 06:57N 45°10' E 036°35'0 0.0
2018-Jan-20 06:31N 45°10' E 036°35'0 0.0
2018-Jan-20 05:59N 45°10' E 036°35'0 0.0
2018-Jan-20 05:27N 45°10' E 036°35'0 0.0
2018-Jan-20 03:43N 45°10' E 036°35'0 0.0
2018-Jan-20 03:30N 45°10' E 036°35'0 0.0
2018-Jan-20 03:00N 45°10' E 036°35'0 0.0
2018-Jan-20 02:26N 45°10' E 036°35'0 0.0
2018-Jan-20 00:08N 45°10' E 036°35'0 0.0
2018-Jan-19 23:55N 45°10' E 036°35'0 0.0
2018-Jan-19 23:30N 45°10' E 036°35'0 0.0
2018-Jan-19 22:57N 45°10' E 036°35'3 2.3
2018-Jan-19 21:40N 45°12' E 036°31'1 6.9
2018-Jan-19 21:30N 45°13' E 036°30'3 7.0
2018-Jan-19 21:00N 45°15' E 036°27'0 0.3
2018-Jan-19 20:30N 45°15' E 036°27'0 0.0
2018-Jan-19 20:01N 45°15' E 036°27'0 0.0
2018-Jan-19 19:07N 45°15' E 036°27'0 0.0
2018-Jan-19 19:00N 45°15' E 036°27'0 0.0
2018-Jan-19 18:31N 45°15' E 036°27'0 0.0
2018-Jan-19 18:00N 45°15' E 036°27'0 0.0
2018-Jan-19 17:15N 45°15' E 036°27'0 0.0
2018-Jan-19 16:59N 45°15' E 036°27'0 0.0
2018-Jan-19 16:28N 45°15' E 036°27'0 0.5
2018-Jan-19 15:58N 45°15' E 036°27'3 5.5
2018-Jan-19 15:29N 45°18' E 036°29'3 6.5
2018-Jan-19 15:01N 45°19' E 036°33'3 6.8
2018-Jan-19 14:30N 45°21' E 036°37'2 4.8
2018-Jan-19 14:00N 45°20' E 036°40'1 2.0
2018-Jan-19 13:31N 45°21' E 036°39'4 7.0
2018-Jan-19 13:01N 45°19' E 036°34'4 7.1
2018-Jan-19 12:29N 45°18' E 036°29'4 6.9
2018-Jan-19 11:55N 45°14' E 036°29'4 7.0
2018-Jan-19 11:22N 45°11' E 036°32'2 6.0
2018-Jan-19 11:00N 45°10' E 036°34'1 2.1
2018-Jan-19 10:31N 45°10' E 036°33'4 7.2
2018-Jan-19 10:01N 45°13' E 036°29'4 7.3
2018-Jan-19 09:30N 45°17' E 036°28'3 6.2
2018-Jan-19 09:00N 45°18' E 036°32'0 0.3
2018-Jan-19 08:28N 45°18' E 036°33'0 0.0
2018-Jan-19 07:58N 45°18' E 036°33'0 0.0
2018-Jan-19 07:28N 45°18' E 036°33'0 0.0
2018-Jan-19 06:58N 45°18' E 036°33'0 0.0
2018-Jan-19 06:28N 45°18' E 036°33'0 0.0
2018-Jan-19 05:58N 45°18' E 036°33'0 0.0
2018-Jan-19 05:28N 45°18' E 036°33'0 0.0
2018-Jan-19 04:58N 45°18' E 036°33'0 0.0
2018-Jan-19 04:28N 45°18' E 036°33'0 0.0
2018-Jan-19 03:58N 45°18' E 036°33'0 0.0
2018-Jan-19 03:28N 45°18' E 036°33'0 0.0
2018-Jan-19 02:58N 45°18' E 036°33'0 0.0
2018-Jan-19 02:25N 45°18' E 036°33'0 0.0
2018-Jan-19 01:58N 45°18' E 036°33'0 0.0
2018-Jan-19 01:28N 45°18' E 036°33'0 0.0
2018-Jan-19 00:58N 45°18' E 036°33'0 0.0
2018-Jan-19 00:28N 45°18' E 036°33'0 0.0
2018-Jan-18 23:58N 45°18' E 036°33'0 0.0
2018-Jan-18 23:28N 45°18' E 036°33'0 0.0
2018-Jan-18 22:58N 45°18' E 036°33'0 0.0
2018-Jan-18 22:28N 45°18' E 036°33'0 0.0
2018-Jan-18 21:58N 45°18' E 036°33'0 0.0
2018-Jan-18 21:28N 45°18' E 036°33'0 0.0
2018-Jan-18 20:58N 45°18' E 036°33'0 0.0
2018-Jan-18 20:28N 45°18' E 036°33'0 0.0
2018-Jan-18 19:58N 45°18' E 036°33'0 0.0
2018-Jan-18 19:28N 45°18' E 036°33'0 0.0
2018-Jan-18 18:58N 45°18' E 036°33'0 0.0
2018-Jan-18 18:28N 45°18' E 036°33'0 0.0
2018-Jan-18 17:58N 45°18' E 036°33'0 0.0
2018-Jan-18 17:28N 45°18' E 036°33'0 0.0
2018-Jan-18 16:58N 45°18' E 036°33'0 0.0
2018-Jan-18 16:28N 45°18' E 036°33'0 0.0
2018-Jan-18 15:55N 45°18' E 036°33'0 0.0
2018-Jan-18 15:28N 45°18' E 036°33'0 0.0
2018-Jan-18 14:58N 45°18' E 036°33'0 0.0
2018-Jan-18 14:28N 45°18' E 036°33'0 0.0
2018-Jan-18 13:58N 45°18' E 036°33'0 0.0
2018-Jan-18 13:28N 45°18' E 036°33'0 0.0
2018-Jan-18 12:58N 45°18' E 036°33'0 0.0
2018-Jan-18 12:28N 45°18' E 036°33'0 0.0
2018-Jan-18 11:58N 45°18' E 036°33'0 0.0
2018-Jan-18 11:28N 45°18' E 036°33'0 0.0
2018-Jan-18 10:58N 45°18' E 036°33'0 0.0
2018-Jan-18 10:28N 45°18' E 036°33'0 0.0
2018-Jan-18 09:58N 45°18' E 036°33'0 0.0
2018-Jan-18 09:28N 45°18' E 036°33'0 0.0
2018-Jan-18 08:58N 45°18' E 036°33'0 0.0
2018-Jan-18 08:28N 45°18' E 036°33'0 0.0
2018-Jan-18 07:58N 45°18' E 036°33'0 0.0
2018-Jan-18 07:28N 45°18' E 036°33'0 0.0
2018-Jan-18 06:58N 45°18' E 036°33'0 0.0
2018-Jan-18 06:28N 45°18' E 036°33'0 0.0
2018-Jan-18 05:58N 45°18' E 036°33'0 0.0
2018-Jan-18 05:28N 45°18' E 036°33'0 0.0
2018-Jan-18 04:58N 45°18' E 036°33'0 0.0
2018-Jan-18 04:28N 45°18' E 036°33'0 0.0
2018-Jan-18 03:58N 45°18' E 036°33'0 0.0
2018-Jan-18 03:28N 45°18' E 036°33'0 0.0
2018-Jan-18 02:58N 45°18' E 036°33'0 0.0
2018-Jan-18 02:25N 45°18' E 036°33'0 0.0
2018-Jan-18 01:58N 45°18' E 036°33'0 0.0
2018-Jan-18 01:28N 45°18' E 036°33'0 0.0
2018-Jan-18 00:58N 45°18' E 036°33'0 0.0
2018-Jan-17 23:58N 45°18' E 036°33'0 0.0
2018-Jan-17 23:52N 45°18' E 036°33'  
Track history (hours):
 
Tides and Currents Weather Stations Pressure Air Temp Water Temp Dewpoint Dewpoint Depression Visibility Wind Speed Wind Dir Waves Ship Positions

Kuban Star

Last reported at 2018-Jan-23 13:49 UTC. Time now 2018-Jan-24 09:51 UTC.
Position N 45°09' E 036°34'.

Length 28 m; draft 3.4 m.

Type: Tug. MMSI: 273316460.

Date/timePositionNaut miles runAvg speedWind from/ knotsBaromVisibWave heightAir tempDewpointWater temp
2018-Jan-23 13:49N 45°09' E 036°34'0 0.1
2018-Jan-23 12:18N 45°09' E 036°34'1 0.4
2018-Jan-23 10:50N 45°09' E 036°34'1 3.6
2018-Jan-23 10:29N 45°10' E 036°33'1 0.1
2018-Jan-22 19:55N 45°10' E 036°34'0 0.0
2018-Jan-22 12:24N 45°10' E 036°34'0 0.0
2018-Jan-22 09:09N 45°10' E 036°34'0 0.0
2018-Jan-22 07:54N 45°10' E 036°34'0 0.1
2018-Jan-22 04:25N 45°10' E 036°34'1 1.1
2018-Jan-22 03:55N 45°10' E 036°33'1 0.1
2018-Jan-21 21:48N 45°10' E 036°34'0 0.0
2018-Jan-21 21:21N 45°10' E 036°34'0 0.0
2018-Jan-21 20:46N 45°10' E 036°34'0 0.0
2018-Jan-21 20:30N 45°10' E 036°34'0 0.2
2018-Jan-21 19:39N 45°10' E 036°34'1 3.8
2018-Jan-21 19:27N 45°10' E 036°33'0 0.0
2018-Jan-21 18:57N 45°10' E 036°33'1 1.7
2018-Jan-21 18:24N 45°10' E 036°34'0 0.0
2018-Jan-21 17:57N 45°10' E 036°34'0 0.0
2018-Jan-21 17:30N 45°10' E 036°34'0 0.0
2018-Jan-21 16:58N 45°10' E 036°34'2 3.0
2018-Jan-21 16:17N 45°08' E 036°34'0 0.1
2018-Jan-21 16:00N 45°08' E 036°34'0 0.6
2018-Jan-21 15:18N 45°09' E 036°35'2 2.3
2018-Jan-21 14:36N 45°10' E 036°34'1 7.5
2018-Jan-21 14:30N 45°10' E 036°33'4 7.5
2018-Jan-21 13:56N 45°10' E 036°27'1 0.1
2018-Jan-21 05:52N 45°10' E 036°26'0 0.0
2018-Jan-21 01:13N 45°10' E 036°26'0 0.0
2018-Jan-21 00:52N 45°10' E 036°26'0 0.0
2018-Jan-21 00:22N 45°10' E 036°26'0 0.0
2018-Jan-20 23:58N 45°10' E 036°26'0 0.0
2018-Jan-20 23:16N 45°10' E 036°26'0 0.0
2018-Jan-20 20:33N 45°10' E 036°26'0 0.0
2018-Jan-20 20:15N 45°10' E 036°26'0 0.0
2018-Jan-20 13:58N 45°10' E 036°26'0 0.0
2018-Jan-20 13:22N 45°10' E 036°26'0 0.0
2018-Jan-20 12:58N 45°10' E 036°26'0 0.0
2018-Jan-20 12:28N 45°10' E 036°26'0 0.0
2018-Jan-20 11:58N 45°10' E 036°26'0 0.0
2018-Jan-20 10:55N 45°10' E 036°26'0 0.0
2018-Jan-20 10:30N 45°10' E 036°26'4 3.1
2018-Jan-20 09:15N 45°09' E 036°31'1 3.7
2018-Jan-20 09:00N 45°09' E 036°33'2 3.1
2018-Jan-20 08:31N 45°10' E 036°34'0 0.4
2018-Jan-20 07:59N 45°10' E 036°35'0 0.0
2018-Jan-20 07:30N 45°10' E 036°35'0 0.0
2018-Jan-20 06:57N 45°10' E 036°35'0 0.0
2018-Jan-20 06:31N 45°10' E 036°35'0 0.0
2018-Jan-20 05:59N 45°10' E 036°35'0 0.0
2018-Jan-20 05:27N 45°10' E 036°35'0 0.0
2018-Jan-20 03:43N 45°10' E 036°35'0 0.0
2018-Jan-20 03:30N 45°10' E 036°35'0 0.0
2018-Jan-20 03:00N 45°10' E 036°35'0 0.0
2018-Jan-20 02:26N 45°10' E 036°35'0 0.0
2018-Jan-20 00:08N 45°10' E 036°35'0 0.0
2018-Jan-19 23:55N 45°10' E 036°35'0 0.0
2018-Jan-19 23:30N 45°10' E 036°35'0 0.0
2018-Jan-19 22:57N 45°10' E 036°35'3 2.3
2018-Jan-19 21:40N 45°12' E 036°31'1 6.9
2018-Jan-19 21:30N 45°13' E 036°30'3 7.0
2018-Jan-19 21:00N 45°15' E 036°27'0 0.3
2018-Jan-19 20:30N 45°15' E 036°27'0 0.0
2018-Jan-19 20:01N 45°15' E 036°27'0 0.0
2018-Jan-19 19:07N 45°15' E 036°27'0 0.0
2018-Jan-19 19:00N 45°15' E 036°27'0 0.0
2018-Jan-19 18:31N 45°15' E 036°27'0 0.0
2018-Jan-19 18:00N 45°15' E 036°27'0 0.0
2018-Jan-19 17:15N 45°15' E 036°27'0 0.0
2018-Jan-19 16:59N 45°15' E 036°27'0 0.0
2018-Jan-19 16:28N 45°15' E 036°27'0 0.5
2018-Jan-19 15:58N 45°15' E 036°27'3 5.5
2018-Jan-19 15:29N 45°18' E 036°29'3 6.5
2018-Jan-19 15:01N 45°19' E 036°33'3 6.8
2018-Jan-19 14:30N 45°21' E 036°37'2 4.8
2018-Jan-19 14:00N 45°20' E 036°40'1 2.0
2018-Jan-19 13:31N 45°21' E 036°39'4 7.0
2018-Jan-19 13:01N 45°19' E 036°34'4 7.1
2018-Jan-19 12:29N 45°18' E 036°29'4 6.9
2018-Jan-19 11:55N 45°14' E 036°29'4 7.0
2018-Jan-19 11:22N 45°11' E 036°32'2 6.0
2018-Jan-19 11:00N 45°10' E 036°34'1 2.1
2018-Jan-19 10:31N 45°10' E 036°33'4 7.2
2018-Jan-19 10:01N 45°13' E 036°29'4 7.3
2018-Jan-19 09:30N 45°17' E 036°28'3 6.2
2018-Jan-19 09:00N 45°18' E 036°32'0 0.3
2018-Jan-19 08:28N 45°18' E 036°33'0 0.0
2018-Jan-19 07:58N 45°18' E 036°33'0 0.0
2018-Jan-19 07:28N 45°18' E 036°33'0 0.0
2018-Jan-19 06:58N 45°18' E 036°33'0 0.0
2018-Jan-19 06:28N 45°18' E 036°33'0 0.0
2018-Jan-19 05:58N 45°18' E 036°33'0 0.0
2018-Jan-19 05:28N 45°18' E 036°33'0 0.0
2018-Jan-19 04:58N 45°18' E 036°33'0 0.0
2018-Jan-19 04:28N 45°18' E 036°33'0 0.0
2018-Jan-19 03:58N 45°18' E 036°33'0 0.0
2018-Jan-19 03:28N 45°18' E 036°33'0 0.0
2018-Jan-19 02:58N 45°18' E 036°33'0 0.0
2018-Jan-19 02:25N 45°18' E 036°33'0 0.0
2018-Jan-19 01:58N 45°18' E 036°33'0 0.0
2018-Jan-19 01:28N 45°18' E 036°33'0 0.0
2018-Jan-19 00:58N 45°18' E 036°33'0 0.0
2018-Jan-19 00:28N 45°18' E 036°33'0 0.0
2018-Jan-18 23:58N 45°18' E 036°33'0 0.0
2018-Jan-18 23:28N 45°18' E 036°33'0 0.0
2018-Jan-18 22:58N 45°18' E 036°33'0 0.0
2018-Jan-18 22:28N 45°18' E 036°33'0 0.0
2018-Jan-18 21:58N 45°18' E 036°33'0 0.0
2018-Jan-18 21:28N 45°18' E 036°33'0 0.0
2018-Jan-18 20:58N 45°18' E 036°33'0 0.0
2018-Jan-18 20:28N 45°18' E 036°33'0 0.0
2018-Jan-18 19:58N 45°18' E 036°33'0 0.0
2018-Jan-18 19:28N 45°18' E 036°33'0 0.0
2018-Jan-18 18:58N 45°18' E 036°33'0 0.0
2018-Jan-18 18:28N 45°18' E 036°33'0 0.0
2018-Jan-18 17:58N 45°18' E 036°33'0 0.0
2018-Jan-18 17:28N 45°18' E 036°33'0 0.0
2018-Jan-18 16:58N 45°18' E 036°33'0 0.0
2018-Jan-18 16:28N 45°18' E 036°33'0 0.0
2018-Jan-18 15:55N 45°18' E 036°33'0 0.0
2018-Jan-18 15:28N 45°18' E 036°33'0 0.0
2018-Jan-18 14:58N 45°18' E 036°33'0 0.0
2018-Jan-18 14:28N 45°18' E 036°33'0 0.0
2018-Jan-18 13:58N 45°18' E 036°33'0 0.0
2018-Jan-18 13:28N 45°18' E 036°33'0 0.0
2018-Jan-18 12:58N 45°18' E 036°33'0 0.0
2018-Jan-18 12:28N 45°18' E 036°33'0 0.0
2018-Jan-18 11:58N 45°18' E 036°33'0 0.0
2018-Jan-18 11:28N 45°18' E 036°33'0 0.0
2018-Jan-18 10:58N 45°18' E 036°33'0 0.0
2018-Jan-18 10:28N 45°18' E 036°33'0 0.0
2018-Jan-18 09:58N 45°18' E 036°33'0 0.0
2018-Jan-18 09:28N 45°18' E 036°33'0 0.0
2018-Jan-18 08:58N 45°18' E 036°33'0 0.0
2018-Jan-18 08:28N 45°18' E 036°33'0 0.0
2018-Jan-18 07:58N 45°18' E 036°33'0 0.0
2018-Jan-18 07:28N 45°18' E 036°33'0 0.0
2018-Jan-18 06:58N 45°18' E 036°33'0 0.0
2018-Jan-18 06:28N 45°18' E 036°33'0 0.0
2018-Jan-18 05:58N 45°18' E 036°33'0 0.0
2018-Jan-18 05:28N 45°18' E 036°33'0 0.0
2018-Jan-18 04:58N 45°18' E 036°33'0 0.0
2018-Jan-18 04:28N 45°18' E 036°33'0 0.0
2018-Jan-18 03:58N 45°18' E 036°33'0 0.0
2018-Jan-18 03:28N 45°18' E 036°33'0 0.0
2018-Jan-18 02:58N 45°18' E 036°33'0 0.0
2018-Jan-18 02:25N 45°18' E 036°33'0 0.0
2018-Jan-18 01:58N 45°18' E 036°33'0 0.0
2018-Jan-18 01:28N 45°18' E 036°33'0 0.0
2018-Jan-18 00:58N 45°18' E 036°33'0 0.0
2018-Jan-17 23:58N 45°18' E 036°33'0 0.0
2018-Jan-17 23:52N 45°18' E 036°33'  

Dump ship's entire track history